Time;durP1;ratioP1;P1;durP2;ratioP2;P2;SDS_P1;SDS_P2;PMS_P1;PMS_P2;Temp;Humidity;BMP_temperature;BMP_pressure;BME280_temperature;BME280_humidity;BME280_pressure;Samples;Min_cycle;Max_cycle;Signal;HPM_P1;HPM_P2
2021/05/23 00:01:56;;;;;;;7.43;2.92;;;;;;;9.18;96.94;100575.59;6272516;28;20658;-77
2021/05/23 00:04:57;;;;;;;14.13;3.28;;;;;;;9.17;97.35;100565.16;6272667;28;20589;-77
2021/05/23 00:08:03;;;;;;;14.25;4.00;;;;;;;9.17;97.48;100565.16;6272937;28;20417;-77
2021/05/23 00:11:07;;;;;;;7.75;3.47;;;;;;;9.17;96.52;100557.28;6269646;28;20040;-77
2021/05/23 00:14:08;;;;;;;18.30;3.80;;;;;;;9.15;98.37;100566.09;6272396;28;20103;-77
2021/05/23 00:17:09;;;;;;;12.00;3.67;;;;;;;9.15;97.21;100563.47;6271578;28;20049;-75
2021/05/23 00:20:12;;;;;;;13.38;3.53;;;;;;;9.18;97.10;100566.88;6271207;28;20670;-77
2021/05/23 00:23:13;;;;;;;8.55;3.22;;;;;;;9.16;97.10;100566.94;6273290;28;20099;-77
2021/05/23 00:26:14;;;;;;;9.65;3.65;;;;;;;9.15;97.13;100567.88;6272215;28;20045;-77
2021/05/23 00:29:15;;;;;;;12.88;4.32;;;;;;;9.13;97.71;100567.09;6273022;28;20055;-77
2021/05/23 00:32:18;;;;;;;13.00;4.70;;;;;;;9.10;97.47;100575.13;6272324;28;20057;-77
2021/05/23 00:35:20;;;;;;;9.70;4.25;;;;;;;9.13;97.54;100575.81;6272590;28;20056;-77
2021/05/23 00:38:20;;;;;;;14.60;4.47;;;;;;;9.11;97.71;100564.53;6272743;28;20085;-78
2021/05/23 00:41:21;;;;;;;10.55;4.40;;;;;;;9.10;99.15;100575.97;6272222;28;20087;-77
2021/05/23 00:44:22;;;;;;;12.73;5.60;;;;;;;9.33;96.90;100580.03;6271607;28;20060;-77
2021/05/23 00:47:24;;;;;;;12.77;5.30;;;;;;;9.14;97.79;100580.13;6272328;28;20055;-77
2021/05/23 00:50:26;;;;;;;12.60;4.72;;;;;;;9.11;99.01;100582.06;6272357;28;20045;-77
2021/05/23 00:53:27;;;;;;;12.68;5.47;;;;;;;9.03;99.22;100582.41;6272730;28;20057;-77
2021/05/23 00:56:28;;;;;;;12.77;4.63;;;;;;;8.94;99.86;100589.88;6274966;28;20051;-77
2021/05/23 00:59:29;;;;;;;10.75;4.70;;;;;;;8.95;98.78;100591.59;6275737;28;20045;-77
2021/05/23 01:02:44;;;;;;;11.27;4.43;;;;;;;9.00;99.07;100594.84;6276876;28;20049;-77
2021/05/23 01:05:45;;;;;;;15.95;4.70;;;;;;;8.81;100.00;100587.00;6276368;28;20064;-77
2021/05/23 01:08:48;;;;;;;17.63;4.35;;;;;;;8.68;100.00;100594.66;6276758;28;20049;-77
2021/05/23 01:12:25;;;;;;;15.38;4.70;;;;;;;8.56;100.00;100592.59;6275646;28;20139;-77
2021/05/23 01:15:30;;;;;;;15.48;5.22;;;;;;;8.54;100.00;100599.66;6276754;28;20068;-77
2021/05/23 01:18:44;;;;;;;15.25;5.35;;;;;;;8.46;100.00;100604.44;6277670;28;20053;-77
2021/05/23 01:21:48;;;;;;;12.27;5.03;;;;;;;8.37;100.00;100592.63;6275813;28;20087;-78
2021/05/23 01:25:00;;;;;;;19.25;5.80;;;;;;;8.34;100.00;100593.56;6275419;23;20508;-80
2021/05/23 01:28:01;;;;;;;19.58;5.60;;;;;;;8.34;100.00;100595.34;6252118;28;20045;-79
2021/05/23 01:31:06;;;;;;;15.95;5.45;;;;;;;8.35;100.00;100591.78;6251213;28;20057;-79
2021/05/23 01:34:09;;;;;;;17.23;6.28;;;;;;;8.33;100.00;100599.72;6251181;28;20053;-81
2021/05/23 01:37:15;;;;;;;16.13;7.07;;;;;;;8.36;100.00;100601.38;6250553;28;20049;-79
2021/05/23 01:40:19;;;;;;;18.83;6.63;;;;;;;8.38;100.00;100599.53;6250637;28;20053;-77
2021/05/23 01:43:20;;;;;;;24.45;6.93;;;;;;;8.35;100.00;100600.50;6250438;28;20050;-79
2021/05/23 01:46:22;;;;;;;19.80;7.13;;;;;;;8.34;100.00;100598.81;6250889;28;20046;-78
2021/05/23 01:49:23;;;;;;;19.02;7.28;;;;;;;8.39;100.00;100601.22;6250249;28;20045;-78
2021/05/23 01:52:24;;;;;;;14.07;7.10;;;;;;;8.31;100.00;100592.84;6250412;28;20527;-78
2021/05/23 01:55:26;;;;;;;12.65;7.10;;;;;;;8.31;100.00;100596.34;6250126;28;20088;-78
2021/05/23 01:58:27;;;;;;;15.75;6.70;;;;;;;8.31;100.00;100598.97;6250353;28;20057;-79
2021/05/23 02:01:28;;;;;;;19.02;8.00;;;;;;;8.33;100.00;100607.59;6249983;28;20123;-78
2021/05/23 02:04:29;;;;;;;17.63;7.25;;;;;;;8.37;100.00;100608.31;6250412;28;20500;-79
2021/05/23 02:07:30;;;;;;;16.90;6.85;;;;;;;8.27;100.00;100602.63;6249500;28;20065;-78
2021/05/23 02:10:32;;;;;;;16.52;6.50;;;;;;;8.30;100.00;100606.88;6249472;28;20049;-78
2021/05/23 02:13:34;;;;;;;18.00;6.28;;;;;;;8.30;100.00;100605.09;6249734;28;20462;-78
2021/05/23 02:16:35;;;;;;;13.52;5.95;;;;;;;8.29;100.00;100606.03;6249870;28;20049;-79
2021/05/23 02:19:35;;;;;;;21.55;6.30;;;;;;;8.27;100.00;100601.78;6249618;28;20052;-78
2021/05/23 02:22:38;;;;;;;19.13;7.35;;;;;;;8.26;100.00;100606.16;6249344;28;20053;-78
2021/05/23 02:25:39;;;;;;;19.95;6.10;;;;;;;8.30;100.00;100609.50;6249635;28;20060;-78
2021/05/23 02:28:40;;;;;;;18.63;6.50;;;;;;;8.31;100.00;100609.44;6249303;28;20084;-78
2021/05/23 02:31:41;;;;;;;16.95;6.93;;;;;;;8.31;100.00;100612.06;6249457;28;20497;-78
2021/05/23 02:34:46;;;;;;;18.98;6.47;;;;;;;8.31;100.00;100611.19;6249177;28;20064;-78
2021/05/23 02:37:48;;;;;;;23.50;7.10;;;;;;;8.29;100.00;100615.66;6249037;28;20058;-77
2021/05/23 02:40:51;;;;;;;11.95;6.53;;;;;;;8.30;100.00;100617.34;6248794;28;20052;-78
2021/05/23 02:43:51;;;;;;;19.83;7.10;;;;;;;8.28;100.00;100609.56;6248708;28;20053;-77
2021/05/23 02:46:53;;;;;;;20.67;6.85;;;;;;;8.21;100.00;100616.00;6248587;28;20571;-76
2021/05/23 02:49:54;;;;;;;14.52;7.45;;;;;;;8.22;100.00;100614.22;6248567;28;20099;-77
2021/05/23 02:52:55;;;;;;;15.57;8.63;;;;;;;8.22;100.00;100625.56;6248948;28;20095;-77
2021/05/23 02:55:57;;;;;;;20.23;8.45;;;;;;;8.23;100.00;100626.41;6248505;28;20045;-78
2021/05/23 02:58:58;;;;;;;18.42;9.00;;;;;;;8.26;100.00;100640.19;6249000;28;20051;-77
2021/05/23 03:01:59;;;;;;;23.05;8.68;;;;;;;8.23;100.00;100636.88;6248276;28;20053;-77
2021/05/23 03:04:59;;;;;;;21.10;9.18;;;;;;;8.20;100.00;100627.38;6248429;28;20060;-78
2021/05/23 03:08:00;;;;;;;18.13;8.80;;;;;;;8.20;100.00;100630.00;6248418;28;20474;-77
2021/05/23 03:11:02;;;;;;;20.08;9.27;;;;;;;8.17;100.00;100627.50;6248376;28;20073;-78
2021/05/23 03:14:03;;;;;;;20.33;8.77;;;;;;;8.21;100.00;100628.22;6247969;28;20475;-77
2021/05/23 03:17:07;;;;;;;23.85;10.18;;;;;;;8.16;100.00;100636.28;6248125;28;20104;-77
2021/05/23 03:20:10;;;;;;;21.15;8.80;;;;;;;8.15;100.00;100637.22;6247100;28;20411;-77
2021/05/23 03:23:11;;;;;;;19.48;8.35;;;;;;;8.21;100.00;100636.94;6247639;28;20060;-77
2021/05/23 03:26:13;;;;;;;20.88;9.80;;;;;;;8.14;100.00;100641.59;6249308;28;20062;-77
2021/05/23 03:29:14;;;;;;;19.08;9.23;;;;;;;8.16;100.00;100645.91;6247766;28;20107;-77
2021/05/23 03:32:15;;;;;;;18.17;9.07;;;;;;;8.12;100.00;100653.06;6247917;28;20591;-78
2021/05/23 03:35:16;;;;;;;16.33;8.40;;;;;;;8.10;100.00;100650.50;6247590;28;20531;-78
2021/05/23 03:38:17;;;;;;;20.33;8.68;;;;;;;8.17;100.00;100668.56;6247734;28;20054;-78
2021/05/23 03:41:19;;;;;;;19.70;9.38;;;;;;;8.16;100.00;100665.09;6247332;28;20048;-78
2021/05/23 03:44:19;;;;;;;17.08;9.13;;;;;;;8.14;100.00;100667.78;6247786;28;20050;-78
2021/05/23 03:47:20;;;;;;;15.95;7.63;;;;;;;8.12;100.00;100669.59;6247225;28;20046;-78
2021/05/23 03:50:24;;;;;;;17.80;7.75;;;;;;;8.13;100.00;100673.94;6247252;28;20059;-77
2021/05/23 03:53:25;;;;;;;14.85;8.45;;;;;;;8.16;100.00;100687.78;6247357;28;20049;-77
2021/05/23 03:56:26;;;;;;;17.40;8.38;;;;;;;8.15;100.00;100684.34;6247599;28;20080;-77
2021/05/23 03:59:27;;;;;;;19.92;8.45;;;;;;;8.16;100.00;100691.25;6246983;28;20049;-77
2021/05/23 04:02:28;;;;;;;16.10;9.02;;;;;;;8.16;100.00;100698.28;6247118;28;20129;-78
2021/05/23 04:05:30;;;;;;;21.13;8.30;;;;;;;8.18;100.00;100696.44;6247249;28;20152;-77
2021/05/23 04:08:31;;;;;;;22.48;8.77;;;;;;;8.20;100.00;100710.31;6247009;28;20045;-77
2021/05/23 04:11:33;;;;;;;14.20;9.18;;;;;;;8.19;100.00;100701.59;6246844;28;20050;-77
2021/05/23 04:14:34;;;;;;;24.85;9.02;;;;;;;8.24;100.00;100709.25;6246903;28;20500;-77
2021/05/23 04:17:35;;;;;;;20.20;8.98;;;;;;;8.23;100.00;100712.81;6247148;28;20060;-77
2021/05/23 04:20:36;;;;;;;14.18;8.57;;;;;;;8.25;100.00;100714.41;6246695;28;20526;-77
2021/05/23 04:23:37;;;;;;;20.27;8.52;;;;;;;8.31;100.00;100714.16;6246745;28;20433;-77
2021/05/23 04:26:39;;;;;;;21.67;8.48;;;;;;;8.32;100.00;100721.09;6246856;28;20172;-78
2021/05/23 04:29:40;;;;;;;18.27;8.32;;;;;;;8.42;100.00;100726.78;6247970;28;20404;-77
2021/05/23 04:32:41;;;;;;;20.27;8.10;;;;;;;8.49;100.00;100735.22;6252072;28;20084;-77
2021/05/23 04:35:43;;;;;;;26.38;9.30;;;;;;;8.42;100.00;100739.03;6251942;28;20103;-77
2021/05/23 04:38:44;;;;;;;23.15;8.95;;;;;;;8.42;100.00;100734.66;6251826;28;20054;-77
2021/05/23 04:41:46;;;;;;;23.95;9.25;;;;;;;8.40;100.00;100746.94;6251674;28;20518;-77
2021/05/23 04:44:47;;;;;;;21.15;8.52;;;;;;;8.59;100.00;100745.22;6251933;28;20053;-78
2021/05/23 04:47:48;;;;;;;19.65;9.43;;;;;;;8.49;100.00;100743.06;6251573;28;20045;-77
2021/05/23 04:50:50;;;;;;;14.90;7.75;;;;;;;8.58;100.00;100753.13;6251489;28;20046;-77
2021/05/23 04:53:51;;;;;;;20.10;7.90;;;;;;;8.45;100.00;100750.25;6251459;28;20416;-77
2021/05/23 04:56:52;;;;;;;19.13;8.02;;;;;;;8.38;100.00;100754.88;6252040;28;20049;-77
2021/05/23 04:59:53;;;;;;;23.20;8.30;;;;;;;8.36;100.00;100756.72;6251179;28;20394;-77
2021/05/23 05:02:54;;;;;;;20.77;7.72;;;;;;;8.38;100.00;100760.13;6251776;28;20108;-77
2021/05/23 05:05:55;;;;;;;24.20;7.47;;;;;;;8.50;100.00;100765.75;6251447;28;20049;-77
2021/05/23 05:08:56;;;;;;;20.52;6.95;;;;;;;8.46;100.00;100767.66;6251593;28;20447;-77
2021/05/23 05:11:58;;;;;;;15.05;6.70;;;;;;;8.45;100.00;100775.56;6251158;28;20060;-78
2021/05/23 05:14:59;;;;;;;17.30;6.25;;;;;;;8.44;100.00;100782.56;6251213;28;20057;-78
2021/05/23 05:17:59;;;;;;;18.83;6.78;;;;;;;8.49;100.00;100771.88;6251107;28;20396;-78
2021/05/23 05:21:00;;;;;;;18.52;5.85;;;;;;;8.63;100.00;100774.75;6250962;28;20049;-77
2021/05/23 05:24:01;;;;;;;19.17;5.57;;;;;;;8.47;100.00;100779.81;6250941;28;20087;-77
2021/05/23 05:27:03;;;;;;;15.70;5.43;;;;;;;8.44;100.00;100777.31;6251056;28;20496;-77
2021/05/23 05:30:06;;;;;;;15.65;6.03;;;;;;;8.50;100.00;100791.94;6250791;28;20045;-77
2021/05/23 05:33:07;;;;;;;27.35;5.80;;;;;;;8.59;100.00;100788.91;6250733;28;20075;-77
2021/05/23 05:36:08;;;;;;;16.23;5.15;;;;;;;8.81;98.73;100794.91;6251153;28;20050;-77
2021/05/23 05:39:09;;;;;;;16.85;5.35;;;;;;;8.70;99.70;100799.75;6250677;28;20052;-78
2021/05/23 05:42:11;;;;;;;20.80;6.57;;;;;;;8.67;99.96;100807.72;6249943;28;20507;-78
2021/05/23 05:45:14;;;;;;;19.48;6.28;;;;;;;8.66;99.47;100800.81;6251022;28;20049;-77
2021/05/23 05:48:15;;;;;;;14.65;5.50;;;;;;;8.68;98.91;100806.00;6250145;28;20091;-78
2021/05/23 05:51:16;;;;;;;19.48;5.35;;;;;;;8.54;100.00;100811.81;6250523;28;20057;-77
2021/05/23 05:54:16;;;;;;;22.50;5.35;;;;;;;8.78;97.92;100816.00;6250878;28;20046;-77
2021/05/23 05:57:18;;;;;;;17.60;4.35;;;;;;;8.57;96.45;100822.16;6250307;28;20069;-78
2021/05/23 06:00:20;;;;;;;14.00;4.78;;;;;;;8.65;96.53;100825.31;6250095;28;20488;-77
2021/05/23 06:03:21;;;;;;;15.50;5.93;;;;;;;8.74;95.92;100830.13;6250262;28;20493;-79
2021/05/23 06:06:23;;;;;;;17.08;5.75;;;;;;;8.83;95.68;100829.72;6249779;28;20059;-77
2021/05/23 06:09:24;;;;;;;27.65;5.40;;;;;;;8.70;96.46;100823.31;6250289;28;20052;-77
2021/05/23 06:12:25;;;;;;;20.20;5.57;;;;;;;8.88;95.71;100833.00;6249925;28;20077;-77
2021/05/23 06:15:27;;;;;;;12.98;5.07;;;;;;;8.80;95.46;100829.00;6250028;28;20061;-78
2021/05/23 06:18:28;;;;;;;20.98;4.40;;;;;;;8.94;91.30;100826.63;6250632;28;20057;-77
2021/05/23 06:21:29;;;;;;;18.85;4.75;;;;;;;9.06;90.55;100827.84;6250517;28;20107;-78
2021/05/23 06:24:30;;;;;;;10.43;5.10;;;;;;;9.01;93.74;100830.66;6249944;28;20077;-76
2021/05/23 06:27:32;;;;;;;13.88;3.95;;;;;;;9.02;91.74;100837.59;6249251;28;20127;-78
2021/05/23 06:30:33;;;;;;;13.85;4.18;;;;;;;9.17;91.69;100843.06;6253336;28;20049;-81
2021/05/23 06:33:34;;;;;;;18.40;4.82;;;;;;;9.24;92.34;100850.59;6251777;28;20064;-79
2021/05/23 06:36:37;;;;;;;18.88;5.05;;;;;;;9.61;90.53;100851.50;6252220;28;20049;-79
2021/05/23 06:39:38;;;;;;;12.70;4.22;;;;;;;9.72;87.65;100849.22;6253903;28;20053;-79
2021/05/23 06:42:40;;;;;;;18.25;3.95;;;;;;;9.49;88.56;100855.53;6253295;28;20057;-81
2021/05/23 06:45:41;;;;;;;14.23;4.25;;;;;;;9.53;89.48;100859.72;6253243;28;20054;-81
2021/05/23 06:48:42;;;;;;;17.10;4.38;;;;;;;9.54;87.47;100864.06;6252918;28;20455;-81
2021/05/23 06:51:43;;;;;;;19.38;4.70;;;;;;;9.46;85.93;100868.81;6252524;28;20050;-81
2021/05/23 06:54:45;;;;;;;15.77;4.20;;;;;;;9.59;85.95;100869.94;6254417;28;20041;-80
2021/05/23 06:57:46;;;;;;;14.85;4.78;;;;;;;9.50;86.02;100872.16;6254782;28;20132;-80
2021/05/23 07:00:47;;;;;;;16.52;5.38;;;;;;;9.30;88.19;100880.91;6252291;28;20057;-80
2021/05/23 07:03:48;;;;;;;16.65;5.63;;;;;;;9.40;87.66;100884.81;6250260;28;20083;-80
2021/05/23 07:06:49;;;;;;;13.20;4.22;;;;;;;9.49;87.12;100881.75;6250636;28;20412;-80
2021/05/23 07:09:50;;;;;;;10.68;4.40;;;;;;;9.35;87.83;100884.19;6250590;28;20059;-80
2021/05/23 07:12:52;;;;;;;18.42;5.18;;;;;;;9.66;88.14;100880.97;6250695;28;20064;-80
2021/05/23 07:15:54;;;;;;;12.60;4.88;;;;;;;9.64;85.56;100885.47;6250097;28;20046;-79
2021/05/23 07:18:54;;;;;;;19.00;5.28;;;;;;;9.90;85.04;100890.31;6249567;28;20045;-80
2021/05/23 07:21:55;;;;;;;13.18;4.22;;;;;;;9.69;86.45;100895.75;6250243;28;20175;-78
2021/05/23 07:24:56;;;;;;;13.10;4.68;;;;;;;9.66;86.67;100899.34;6248433;28;20420;-80
2021/05/23 07:27:58;;;;;;;19.55;4.75;;;;;;;10.09;85.65;100903.41;6249217;28;20072;-78
2021/05/23 07:31:00;;;;;;;10.45;3.97;;;;;;;9.88;82.91;100900.03;6248076;28;20064;-79
2021/05/23 07:34:02;;;;;;;14.93;3.85;;;;;;;9.96;80.54;100893.56;6248065;28;20049;-78
2021/05/23 07:37:03;;;;;;;11.38;4.05;;;;;;;9.83;82.82;100901.19;6248844;28;20056;-79
2021/05/23 07:40:05;;;;;;;11.88;4.55;;;;;;;9.98;81.88;100908.31;6248648;28;20049;-79
2021/05/23 07:43:07;;;;;;;11.60;3.83;;;;;;;9.91;83.15;100905.16;6248520;28;20056;-79
2021/05/23 07:46:08;;;;;;;12.85;4.25;;;;;;;9.89;83.67;100908.75;6248256;28;20057;-80
2021/05/23 07:49:09;;;;;;;10.93;3.80;;;;;;;9.91;81.57;100902.50;6249244;28;20617;-80
2021/05/23 07:52:11;;;;;;;23.75;4.28;;;;;;;10.14;80.76;100909.28;6250287;28;20075;-79
2021/05/23 07:55:13;;;;;;;9.40;3.58;;;;;;;10.36;78.69;100900.38;6265268;28;20095;-77
2021/05/23 07:58:15;;;;;;;6.55;3.25;;;;;;;10.22;76.93;100910.66;6267753;28;20053;-80
2021/05/23 08:01:16;;;;;;;18.92;4.07;;;;;;;10.19;77.35;100916.94;6250416;28;20045;-81
2021/05/23 08:04:17;;;;;;;12.85;3.47;;;;;;;10.24;74.47;100911.44;6224965;28;20493;-79
2021/05/23 08:07:17;;;;;;;10.18;3.63;;;;;;;10.32;76.98;100910.19;6225708;28;20054;-79
2021/05/23 08:10:18;;;;;;;10.73;2.90;;;;;;;10.45;76.62;100920.94;6232890;28;20076;-79
2021/05/23 08:13:20;;;;;;;11.95;4.05;;;;;;;10.48;76.75;100914.66;6277553;28;20049;-79
2021/05/23 08:16:21;;;;;;;14.80;3.83;;;;;;;10.44;79.03;100928.88;6275499;28;20072;-79
2021/05/23 08:19:22;;;;;;;13.10;3.53;;;;;;;10.63;75.70;100929.69;6277644;28;20041;-80
2021/05/23 08:22:23;;;;;;;9.35;4.45;;;;;;;10.67;77.44;100931.19;6276683;28;20056;-79
2021/05/23 08:25:24;;;;;;;10.23;3.72;;;;;;;10.74;77.78;100931.75;6274615;28;20052;-79
2021/05/23 08:28:29;;;;;;;11.27;3.30;;;;;;;10.71;75.16;100934.53;6276718;28;20049;-79
2021/05/23 08:31:30;;;;;;;10.88;3.83;;;;;;;10.82;73.81;100940.94;6273703;28;20112;-76
2021/05/23 08:34:31;;;;;;;7.82;2.97;;;;;;;10.76;77.64;100935.97;6273107;28;20049;-79
2021/05/23 08:37:32;;;;;;;7.05;2.78;;;;;;;10.74;76.00;100927.34;6273758;28;20131;-79
2021/05/23 08:40:34;;;;;;;9.25;3.13;;;;;;;10.77;74.09;100931.59;6256355;28;20460;-78
2021/05/23 08:43:36;;;;;;;5.13;2.72;;;;;;;10.73;77.18;100930.91;6246819;28;20045;-79
2021/05/23 08:46:38;;;;;;;9.38;3.03;;;;;;;10.83;72.16;100939.16;6246993;28;20140;-78
2021/05/23 08:49:38;;;;;;;7.28;2.63;;;;;;;10.86;73.38;100933.75;6246580;28;20516;-79
2021/05/23 08:52:39;;;;;;;6.10;2.30;;;;;;;11.03;72.33;100938.13;6247113;28;20084;-79
2021/05/23 08:55:43;;;;;;;9.68;2.40;;;;;;;11.05;70.22;100945.00;6247026;28;20053;-79
2021/05/23 08:58:44;;;;;;;6.15;2.70;;;;;;;11.24;70.74;100944.88;6247282;28;20049;-79
2021/05/23 09:01:46;;;;;;;6.82;2.65;;;;;;;11.10;71.90;100940.34;6246577;28;20052;-79
2021/05/23 09:04:49;;;;;;;9.25;3.42;;;;;;;11.14;74.67;100943.69;6247074;28;20053;-79
2021/05/23 09:07:49;;;;;;;12.38;5.20;;;;;;;11.35;76.25;100954.84;6247026;28;20057;-79
2021/05/23 09:10:52;;;;;;;7.13;3.42;;;;;;;11.68;73.26;100960.09;6247093;28;20049;-80
2021/05/23 09:13:55;;;;;;;5.72;3.00;;;;;;;11.46;70.77;100956.91;6247428;28;20053;-81
2021/05/23 09:16:56;;;;;;;5.40;2.70;;;;;;;11.43;71.20;100956.13;6248881;28;20049;-82
2021/05/23 09:19:57;;;;;;;7.72;2.40;;;;;;;11.57;71.17;100958.03;6251864;28;20728;-80
2021/05/23 09:23:01;;;;;;;5.97;3.30;;;;;;;11.84;73.67;100965.38;6251485;28;20053;-79
2021/05/23 09:26:03;;;;;;;8.13;3.60;;;;;;;11.91;70.65;100959.69;6251548;28;20089;-83
2021/05/23 09:29:07;;;;;;;7.30;3.20;;;;;;;12.12;71.16;100964.69;6251694;28;20132;-81
2021/05/23 09:32:26;;;;;;;10.13;3.63;;;;;;;12.31;70.43;100970.63;6256247;28;20053;-81
2021/05/23 09:35:28;;;;;;;11.15;3.60;;;;;;;12.27;72.04;100968.28;6249824;28;20047;-80
2021/05/23 09:38:51;;;;;;;6.82;2.90;;;;;;;12.08;68.98;100977.22;6251469;28;20069;-79
2021/05/23 09:42:03;;;;;;;11.30;3.15;;;;;;;12.13;68.54;100980.44;6246080;28;20037;-79
2021/05/23 09:45:06;;;;;;;10.23;4.45;;;;;;;12.13;69.00;100992.75;6250637;28;20045;-80
2021/05/23 09:48:15;;;;;;;5.88;3.10;;;;;;;12.15;70.61;100989.09;6249307;28;20045;-78
2021/05/23 09:51:17;;;;;;;;;;;;;;;12.33;68.29;101003.00;6250688;28;20515;-79
2021/05/23 09:54:18;;;;;;;5.68;3.00;;;;;;;12.25;67.26;100999.94;6250709;28;20413;-78
2021/05/23 09:57:28;;;;;;;9.75;3.42;;;;;;;12.36;66.58;100988.81;6251764;28;20046;-80
2021/05/23 10:00:39;;;;;;;11.13;4.60;;;;;;;12.31;67.78;100989.09;6250329;28;20136;-79
2021/05/23 10:03:41;;;;;;;4.70;3.38;;;;;;;12.28;67.39;100991.88;6250227;28;20055;-80
2021/05/23 10:06:44;;;;;;;8.57;3.75;;;;;;;12.56;68.14;100979.75;6251372;28;20049;-81
2021/05/23 10:09:45;;;;;;;7.45;3.10;;;;;;;12.58;68.30;100983.16;6251185;28;20049;-81
2021/05/23 10:12:57;;;;;;;11.68;3.72;;;;;;;12.69;68.09;100983.38;6251167;28;20045;-82
2021/05/23 10:15:59;;;;;;;10.90;4.05;;;;;;;12.81;67.17;100981.81;6256987;28;20501;-80
2021/05/23 10:19:00;;;;;;;12.68;4.15;;;;;;;12.57;66.95;100989.38;6253123;28;20045;-81
2021/05/23 10:22:03;;;;;;;10.88;4.30;;;;;;;12.57;69.83;100997.28;6251612;28;20063;-82
2021/05/23 10:25:09;;;;;;;5.43;3.80;;;;;;;12.44;69.04;100997.13;6251872;28;20046;-79
2021/05/23 10:28:10;;;;;;;4.72;3.22;;;;;;;12.34;68.92;100999.44;6252065;28;20057;-81
2021/05/23 10:31:13;;;;;;;6.53;4.50;;;;;;;11.88;76.08;101004.63;6257055;28;20053;-82
2021/05/23 10:34:14;;;;;;;7.85;4.85;;;;;;;11.46;82.30;101013.03;6257024;28;20049;-82
2021/05/23 10:37:17;;;;;;;9.68;6.10;;;;;;;11.04;89.38;101034.53;6254437;28;20063;-82
2021/05/23 10:40:21;;;;;;;17.60;9.68;;;;;;;10.72;98.94;101047.50;6251224;28;20076;-81
2021/05/23 10:43:25;;;;;;;14.68;9.88;;;;;;;10.26;100.00;101049.69;6260202;28;20115;-82
2021/05/23 10:46:27;;;;;;;17.70;10.82;;;;;;;10.08;100.00;101051.38;6250008;28;20463;-79
2021/05/23 10:49:28;;;;;;;14.85;9.43;;;;;;;10.11;100.00;101047.75;6249552;28;20061;-80
2021/05/23 10:52:31;;;;;;;14.38;8.98;;;;;;;9.94;100.00;101060.78;6249823;28;20055;-81
2021/05/23 10:55:33;;;;;;;10.52;6.95;;;;;;;9.94;100.00;101055.53;6251011;28;20462;-79
2021/05/23 10:58:34;;;;;;;12.20;7.10;;;;;;;9.93;100.00;101066.97;6250195;28;20050;-78
2021/05/23 11:01:43;;;;;;;6.68;5.20;;;;;;;9.94;100.00;101063.41;6249359;28;20080;-79
2021/05/23 11:04:44;;;;;;;;;;;;;;;9.79;100.00;101071.06;6250416;28;20076;-79
2021/05/23 11:07:58;;;;;;;5.97;4.07;;;;;;;9.87;100.00;101070.72;6254446;28;20435;-78
2021/05/23 11:11:00;;;;;;;7.55;4.70;;;;;;;10.35;100.00;101072.88;6273782;28;20044;-79
2021/05/23 11:14:24;;;;;;;5.03;4.18;;;;;;;10.68;100.00;101077.47;6274247;28;20053;-79
2021/05/23 11:17:25;;;;;;;7.63;4.95;;;;;;;10.80;100.00;101081.28;6268307;28;20053;-79
2021/05/23 11:20:26;;;;;;;9.30;6.05;;;;;;;10.95;100.00;101071.81;6246616;28;20527;-79
2021/05/23 11:23:30;;;;;;;9.70;6.50;;;;;;;10.97;100.00;101068.16;6249780;28;20057;-78
2021/05/23 11:26:32;;;;;;;17.40;7.05;;;;;;;11.06;100.00;101072.09;6252175;28;20488;-78
2021/05/23 11:29:33;;;;;;;7.28;5.85;;;;;;;11.04;100.00;101071.34;6249903;28;20493;-79
2021/05/23 11:32:35;;;;;;;8.57;7.05;;;;;;;11.07;100.00;101077.28;6250504;28;20060;-79
2021/05/23 11:35:37;;;;;;;11.27;7.07;;;;;;;11.22;100.00;101078.31;6248286;28;20049;-79
2021/05/23 11:38:38;;;;;;;6.43;4.70;;;;;;;11.28;96.28;101075.34;6247481;28;20100;-76
2021/05/23 11:41:40;;;;;;;8.63;4.40;;;;;;;11.59;91.71;101085.16;6244952;28;20456;-77
2021/05/23 11:44:43;;;;;;;6.63;4.53;;;;;;;11.40;91.84;101134.41;6248995;28;20050;-77
2021/05/23 11:47:45;;;;;;;9.13;4.60;;;;;;;10.93;96.00;101137.59;6246594;28;20045;-75
2021/05/23 11:50:48;;;;;;;7.50;2.75;;;;;;;9.89;100.00;101137.13;6246482;28;20057;-75
2021/05/23 11:53:50;;;;;;;4.18;2.30;;;;;;;9.29;100.00;101149.34;6246997;28;20054;-76
2021/05/23 11:56:52;;;;;;;2.45;1.40;;;;;;;9.31;100.00;101135.25;6247046;28;20419;-75
2021/05/23 11:59:52;;;;;;;1.58;1.05;;;;;;;8.86;100.00;101138.84;6247054;28;20041;-75
2021/05/23 12:02:59;;;;;;;1.95;1.00;;;;;;;9.10;100.00;101136.13;6245014;28;20051;-76
2021/05/23 12:06:00;;;;;;;0.95;0.80;;;;;;;9.24;100.00;101146.06;6246893;28;20045;-76
2021/05/23 12:09:09;;;;;;;1.17;0.85;;;;;;;9.12;100.00;101140.38;6246939;28;20045;-76
2021/05/23 12:12:10;;;;;;;1.87;1.20;;;;;;;9.43;100.00;101143.53;6221606;28;20049;-76
2021/05/23 12:15:18;;;;;;;1.40;1.10;;;;;;;9.33;100.00;101141.28;6232846;28;20050;-75
2021/05/23 12:18:20;;;;;;;6.18;1.33;;;;;;;9.48;100.00;101141.56;6246541;28;20084;-76
2021/05/23 12:21:23;;;;;;;2.97;1.63;;;;;;;9.90;100.00;101133.56;6245183;28;20053;-76
2021/05/23 12:24:24;;;;;;;3.40;1.98;;;;;;;10.25;100.00;101132.03;6240005;28;20493;-77
2021/05/23 12:27:27;;;;;;;3.25;1.88;;;;;;;10.97;100.00;101131.25;6245051;28;20057;-77
2021/05/23 12:30:30;;;;;;;3.38;2.03;;;;;;;11.24;99.81;101138.72;6245098;28;20053;-77
2021/05/23 12:33:33;;;;;;;3.65;1.88;;;;;;;11.16;98.68;101131.19;6244892;28;20042;-76
2021/05/23 12:36:34;;;;;;;2.88;2.20;;;;;;;11.39;98.88;101141.41;6245267;28;20048;-77
2021/05/23 12:39:35;;;;;;;5.63;2.60;;;;;;;11.35;99.28;101134.59;6244699;28;20046;-76
2021/05/23 12:42:36;;;;;;;5.22;2.95;;;;;;;11.40;98.39;101129.16;6244685;28;20408;-76
2021/05/23 12:45:37;;;;;;;5.60;3.25;;;;;;;11.44;96.54;101120.13;6244907;28;20084;-77
2021/05/23 12:48:41;;;;;;;3.67;2.50;;;;;;;11.95;93.32;101122.84;6244910;28;20045;-76
2021/05/23 12:51:43;;;;;;;5.47;2.53;;;;;;;11.88;94.32;101124.94;6245082;28;20060;-77
2021/05/23 12:54:44;;;;;;;7.85;3.30;;;;;;;12.19;98.17;101118.88;6249875;28;20128;-77
2021/05/23 12:57:50;;;;;;;8.40;2.88;;;;;;;12.34;92.64;101107.50;6249480;28;20052;-76
2021/05/23 13:00:51;;;;;;;7.03;2.47;;;;;;;12.92;91.45;101106.00;6249547;28;20096;-76
2021/05/23 13:03:55;;;;;;;8.50;2.00;;;;;;;13.40;85.72;101102.34;6249427;28;20076;-78
2021/05/23 13:06:59;;;;;;;6.97;2.00;;;;;;;13.71;75.27;101113.69;6250590;28;20056;-77
2021/05/23 13:10:10;;;;;;;10.75;2.38;;;;;;;13.95;75.89;101104.28;6252704;28;20053;-76
2021/05/23 13:13:11;;;;;;;8.57;2.15;;;;;;;14.17;67.55;101117.03;6248048;28;20045;-80
2021/05/23 13:16:13;;;;;;;12.10;2.05;;;;;;;13.57;70.01;101105.75;6250927;28;20059;-76
2021/05/23 13:19:15;;;;;;;5.43;2.30;;;;;;;13.60;71.25;101116.97;6250721;28;20428;-76
2021/05/23 13:22:16;;;;;;;4.28;1.90;;;;;;;13.40;74.31;101112.91;6249123;28;20049;-76
2021/05/23 13:25:19;;;;;;;9.18;2.38;;;;;;;13.26;71.25;101118.13;6249369;28;20492;-79
2021/05/23 13:28:23;;;;;;;9.02;2.10;;;;;;;13.03;73.30;101122.06;6250249;28;20049;-80
2021/05/23 13:31:24;;;;;;;7.22;2.05;;;;;;;12.86;77.28;101119.56;6248152;28;20046;-79
2021/05/23 13:34:26;;;;;;;7.30;2.33;;;;;;;12.86;75.22;101112.50;6251680;28;20041;-79
2021/05/23 13:37:27;;;;;;;8.57;2.20;;;;;;;12.77;75.61;101115.66;6250391;28;20056;-79
2021/05/23 13:40:28;;;;;;;6.57;2.63;;;;;;;13.05;71.97;101114.09;6250524;28;20049;-77
2021/05/23 13:43:29;;;;;;;9.27;2.25;;;;;;;13.59;73.05;101096.81;6251171;28;20049;-80
2021/05/23 13:46:30;;;;;;;14.93;4.22;;;;;;;14.49;71.55;101100.94;6251134;28;20507;-80
2021/05/23 13:49:32;;;;;;;9.80;1.92;;;;;;;14.63;64.65;101098.25;6250121;28;20045;-80
2021/05/23 13:52:33;;;;;;;8.27;1.58;;;;;;;13.99;66.44;101096.16;6250044;28;20049;-78
2021/05/23 13:55:34;;;;;;;7.80;2.00;;;;;;;14.12;69.11;101084.72;6250044;28;20076;-79
2021/05/23 13:58:35;;;;;;;6.57;2.00;;;;;;;14.30;66.04;101090.63;6250202;28;20626;-79
2021/05/23 14:01:40;;;;;;;4.30;1.60;;;;;;;15.05;61.11;101093.75;6248043;28;20497;-78
2021/05/23 14:04:42;;;;;;;8.02;2.03;;;;;;;14.75;62.31;101091.31;6247210;28;20076;-78